sensor_id;sensor_type;location;lat;lon;timestamp;temperature;humidity
15450;DHT22;7826;49.784;9.934;2022-11-09T00:00:54;10.50;1.00
15450;DHT22;7826;49.784;9.934;2022-11-09T00:03:21;10.50;1.00
15450;DHT22;7826;49.784;9.934;2022-11-09T00:05:57;10.50;1.00
15450;DHT22;7826;49.784;9.934;2022-11-09T00:08:23;10.50;1.00
15450;DHT22;7826;49.784;9.934;2022-11-09T00:10:49;10.50;1.00
15450;DHT22;7826;49.784;9.934;2022-11-09T00:13:15;10.50;1.00
15450;DHT22;7826;49.784;9.934;2022-11-09T00:15:42;10.50;1.00
15450;DHT22;7826;49.784;9.934;2022-11-09T00:18:08;10.50;1.00
15450;DHT22;7826;49.784;9.934;2022-11-09T00:20:34;10.50;1.00
15450;DHT22;7826;49.784;9.934;2022-11-09T00:23:01;10.50;1.00
15450;DHT22;7826;49.784;9.934;2022-11-09T00:25:27;10.50;1.00
15450;DHT22;7826;49.784;9.934;2022-11-09T00:27:54;10.40;1.00
15450;DHT22;7826;49.784;9.934;2022-11-09T00:30:20;10.40;1.00
15450;DHT22;7826;49.784;9.934;2022-11-09T00:32:46;10.40;1.00
15450;DHT22;7826;49.784;9.934;2022-11-09T00:35:13;10.40;1.00
15450;DHT22;7826;49.784;9.934;2022-11-09T00:37:39;10.30;1.00
15450;DHT22;7826;49.784;9.934;2022-11-09T00:40:06;10.30;1.00
15450;DHT22;7826;49.784;9.934;2022-11-09T00:42:33;10.30;1.00
15450;DHT22;7826;49.784;9.934;2022-11-09T00:44:59;10.30;1.00
15450;DHT22;7826;49.784;9.934;2022-11-09T00:47:26;10.20;1.00
15450;DHT22;7826;49.784;9.934;2022-11-09T00:49:53;10.20;1.00
15450;DHT22;7826;49.784;9.934;2022-11-09T00:52:20;10.20;1.00
15450;DHT22;7826;49.784;9.934;2022-11-09T00:54:46;10.20;1.00
15450;DHT22;7826;49.784;9.934;2022-11-09T00:57:13;10.20;1.00
15450;DHT22;7826;49.784;9.934;2022-11-09T00:59:39;10.30;1.00
15450;DHT22;7826;49.784;9.934;2022-11-09T01:02:05;10.30;1.00
15450;DHT22;7826;49.784;9.934;2022-11-09T01:04:32;10.30;1.00
15450;DHT22;7826;49.784;9.934;2022-11-09T01:06:58;10.30;1.00
15450;DHT22;7826;49.784;9.934;2022-11-09T01:09:24;10.30;1.00
15450;DHT22;7826;49.784;9.934;2022-11-09T01:11:51;10.30;1.00
15450;DHT22;7826;49.784;9.934;2022-11-09T01:14:17;10.40;1.00
15450;DHT22;7826;49.784;9.934;2022-11-09T01:16:43;10.40;1.00
15450;DHT22;7826;49.784;9.934;2022-11-09T01:19:10;10.50;1.00
15450;DHT22;7826;49.784;9.934;2022-11-09T01:21:37;10.50;99.90
15450;DHT22;7826;49.784;9.934;2022-11-09T01:24:03;10.50;99.90
15450;DHT22;7826;49.784;9.934;2022-11-09T01:26:30;10.50;99.90
15450;DHT22;7826;49.784;9.934;2022-11-09T01:28:56;10.60;99.90
15450;DHT22;7826;49.784;9.934;2022-11-09T01:31:23;10.60;99.90
15450;DHT22;7826;49.784;9.934;2022-11-09T01:33:49;10.60;99.90
15450;DHT22;7826;49.784;9.934;2022-11-09T01:36:19;10.60;99.90
15450;DHT22;7826;49.784;9.934;2022-11-09T01:38:46;10.60;99.90
15450;DHT22;7826;49.784;9.934;2022-11-09T01:41:15;10.60;99.90
15450;DHT22;7826;49.784;9.934;2022-11-09T01:43:43;10.60;99.90
15450;DHT22;7826;49.784;9.934;2022-11-09T01:48:49;10.60;99.90
15450;DHT22;7826;49.784;9.934;2022-11-09T01:51:24;10.60;99.90
15450;DHT22;7826;49.784;9.934;2022-11-09T01:53:56;10.50;99.90
15450;DHT22;7826;49.784;9.934;2022-11-09T01:56:23;10.50;99.90
15450;DHT22;7826;49.784;9.934;2022-11-09T01:58:58;10.40;1.00
15450;DHT22;7826;49.784;9.934;2022-11-09T02:01:26;10.40;48.50
15450;DHT22;7826;49.784;9.934;2022-11-09T02:04:00;10.40;1.00
15450;DHT22;7826;49.784;9.934;2022-11-09T02:06:32;10.40;1.00
15450;DHT22;7826;49.784;9.934;2022-11-09T02:09:20;10.40;1.00
15450;DHT22;7826;49.784;9.934;2022-11-09T02:11:48;10.40;1.00
15450;DHT22;7826;49.784;9.934;2022-11-09T02:14:14;10.40;1.00
15450;DHT22;7826;49.784;9.934;2022-11-09T02:16:42;10.40;99.90
15450;DHT22;7826;49.784;9.934;2022-11-09T02:19:09;10.40;1.00
15450;DHT22;7826;49.784;9.934;2022-11-09T02:21:35;10.40;1.00
15450;DHT22;7826;49.784;9.934;2022-11-09T02:24:01;10.40;99.90
15450;DHT22;7826;49.784;9.934;2022-11-09T02:26:33;10.50;1.00
15450;DHT22;7826;49.784;9.934;2022-11-09T02:29:04;10.40;99.90
15450;DHT22;7826;49.784;9.934;2022-11-09T02:31:34;10.40;21.20
15450;DHT22;7826;49.784;9.934;2022-11-09T02:34:16;10.40;99.90
15450;DHT22;7826;49.784;9.934;2022-11-09T02:36:43;10.40;1.00
15450;DHT22;7826;49.784;9.934;2022-11-09T02:39:10;10.40;1.00
15450;DHT22;7826;49.784;9.934;2022-11-09T02:41:45;10.30;68.70
15450;DHT22;7826;49.784;9.934;2022-11-09T02:44:13;10.40;99.90
15450;DHT22;7826;49.784;9.934;2022-11-09T02:46:41;10.30;1.00
15450;DHT22;7826;49.784;9.934;2022-11-09T02:49:07;10.30;1.00
15450;DHT22;7826;49.784;9.934;2022-11-09T02:51:34;10.30;99.90
15450;DHT22;7826;49.784;9.934;2022-11-09T02:54:00;10.30;1.00
15450;DHT22;7826;49.784;9.934;2022-11-09T02:56:26;10.30;1.00
15450;DHT22;7826;49.784;9.934;2022-11-09T02:58:53;10.30;99.90
15450;DHT22;7826;49.784;9.934;2022-11-09T03:01:19;10.30;99.90
15450;DHT22;7826;49.784;9.934;2022-11-09T03:03:45;10.30;1.00
15450;DHT22;7826;49.784;9.934;2022-11-09T03:06:12;10.30;99.90
15450;DHT22;7826;49.784;9.934;2022-11-09T03:08:38;10.30;99.90
15450;DHT22;7826;49.784;9.934;2022-11-09T03:11:05;10.30;1.00
15450;DHT22;7826;49.784;9.934;2022-11-09T03:13:32;10.30;1.00
15450;DHT22;7826;49.784;9.934;2022-11-09T03:16:03;10.30;1.00
15450;DHT22;7826;49.784;9.934;2022-11-09T03:18:30;10.30;1.00
15450;DHT22;7826;49.784;9.934;2022-11-09T03:21:01;10.30;99.90
15450;DHT22;7826;49.784;9.934;2022-11-09T03:23:28;10.40;99.90
15450;DHT22;7826;49.784;9.934;2022-11-09T03:25:54;10.40;99.90
15450;DHT22;7826;49.784;9.934;2022-11-09T03:28:20;10.50;99.90
15450;DHT22;7826;49.784;9.934;2022-11-09T03:30:47;10.50;99.90
15450;DHT22;7826;49.784;9.934;2022-11-09T03:33:16;10.50;99.90
15450;DHT22;7826;49.784;9.934;2022-11-09T03:35:43;10.50;1.00
15450;DHT22;7826;49.784;9.934;2022-11-09T03:38:09;10.50;1.00
15450;DHT22;7826;49.784;9.934;2022-11-09T03:40:36;10.40;1.00
15450;DHT22;7826;49.784;9.934;2022-11-09T03:43:02;10.40;1.00
15450;DHT22;7826;49.784;9.934;2022-11-09T03:45:28;10.40;1.00
15450;DHT22;7826;49.784;9.934;2022-11-09T03:47:55;10.40;1.00
15450;DHT22;7826;49.784;9.934;2022-11-09T03:50:27;10.40;1.00
15450;DHT22;7826;49.784;9.934;2022-11-09T03:52:53;10.40;1.00
15450;DHT22;7826;49.784;9.934;2022-11-09T03:55:20;10.40;1.00
15450;DHT22;7826;49.784;9.934;2022-11-09T03:57:47;10.40;1.00
15450;DHT22;7826;49.784;9.934;2022-11-09T04:00:15;10.40;1.00
15450;DHT22;7826;49.784;9.934;2022-11-09T04:02:42;10.40;1.00
15450;DHT22;7826;49.784;9.934;2022-11-09T04:05:09;10.40;1.00
15450;DHT22;7826;49.784;9.934;2022-11-09T04:07:37;10.30;1.00
15450;DHT22;7826;49.784;9.934;2022-11-09T04:10:05;10.30;1.00
15450;DHT22;7826;49.784;9.934;2022-11-09T04:12:31;10.30;1.00
15450;DHT22;7826;49.784;9.934;2022-11-09T04:14:58;10.20;1.00
15450;DHT22;7826;49.784;9.934;2022-11-09T04:17:24;10.20;1.00
15450;DHT22;7826;49.784;9.934;2022-11-09T04:19:51;10.20;1.00
15450;DHT22;7826;49.784;9.934;2022-11-09T04:22:17;10.20;1.00
15450;DHT22;7826;49.784;9.934;2022-11-09T04:24:43;10.10;1.00
15450;DHT22;7826;49.784;9.934;2022-11-09T04:27:10;10.10;1.00
15450;DHT22;7826;49.784;9.934;2022-11-09T04:29:36;10.10;19.50
15450;DHT22;7826;49.784;9.934;2022-11-09T04:32:02;10.10;60.40
15450;DHT22;7826;49.784;9.934;2022-11-09T04:34:29;10.10;99.90
15450;DHT22;7826;49.784;9.934;2022-11-09T04:36:55;10.10;99.90
15450;DHT22;7826;49.784;9.934;2022-11-09T04:39:21;10.10;99.90
15450;DHT22;7826;49.784;9.934;2022-11-09T04:41:48;10.10;99.90
15450;DHT22;7826;49.784;9.934;2022-11-09T04:44:14;10.10;99.90
15450;DHT22;7826;49.784;9.934;2022-11-09T04:46:40;10.10;99.90
15450;DHT22;7826;49.784;9.934;2022-11-09T04:49:08;10.10;99.90
15450;DHT22;7826;49.784;9.934;2022-11-09T04:51:34;10.10;1.00
15450;DHT22;7826;49.784;9.934;2022-11-09T04:54:00;10.10;1.00
15450;DHT22;7826;49.784;9.934;2022-11-09T04:56:27;10.10;1.00
15450;DHT22;7826;49.784;9.934;2022-11-09T04:58:53;10.10;1.00
15450;DHT22;7826;49.784;9.934;2022-11-09T05:01:19;10.00;1.00
15450;DHT22;7826;49.784;9.934;2022-11-09T05:03:45;10.10;1.00
15450;DHT22;7826;49.784;9.934;2022-11-09T05:06:12;10.10;1.00
15450;DHT22;7826;49.784;9.934;2022-11-09T05:09:01;10.10;1.00
15450;DHT22;7826;49.784;9.934;2022-11-09T05:11:28;10.10;1.00
15450;DHT22;7826;49.784;9.934;2022-11-09T05:13:54;10.10;1.00
15450;DHT22;7826;49.784;9.934;2022-11-09T05:16:21;10.00;1.00
15450;DHT22;7826;49.784;9.934;2022-11-09T05:18:48;10.00;1.00
15450;DHT22;7826;49.784;9.934;2022-11-09T05:21:15;10.00;1.00
15450;DHT22;7826;49.784;9.934;2022-11-09T05:23:42;9.90;1.00
15450;DHT22;7826;49.784;9.934;2022-11-09T05:26:33;9.90;1.00
15450;DHT22;7826;49.784;9.934;2022-11-09T05:29:01;9.80;1.00
15450;DHT22;7826;49.784;9.934;2022-11-09T05:31:29;9.80;1.00
15450;DHT22;7826;49.784;9.934;2022-11-09T05:33:55;9.80;1.00
15450;DHT22;7826;49.784;9.934;2022-11-09T05:36:23;9.80;1.00
15450;DHT22;7826;49.784;9.934;2022-11-09T05:38:49;9.80;1.00
15450;DHT22;7826;49.784;9.934;2022-11-09T05:41:15;9.80;1.00
15450;DHT22;7826;49.784;9.934;2022-11-09T05:43:42;9.80;1.00
15450;DHT22;7826;49.784;9.934;2022-11-09T05:46:13;9.80;1.00
15450;DHT22;7826;49.784;9.934;2022-11-09T05:48:40;9.80;1.00
15450;DHT22;7826;49.784;9.934;2022-11-09T05:51:08;9.80;1.00
15450;DHT22;7826;49.784;9.934;2022-11-09T05:53:35;9.80;1.00
15450;DHT22;7826;49.784;9.934;2022-11-09T05:56:07;9.80;1.00
15450;DHT22;7826;49.784;9.934;2022-11-09T05:58:34;9.80;1.00
15450;DHT22;7826;49.784;9.934;2022-11-09T06:01:05;9.80;1.00
15450;DHT22;7826;49.784;9.934;2022-11-09T06:03:32;9.80;1.00
15450;DHT22;7826;49.784;9.934;2022-11-09T06:06:00;9.80;1.00
15450;DHT22;7826;49.784;9.934;2022-11-09T06:08:27;9.90;1.00
15450;DHT22;7826;49.784;9.934;2022-11-09T06:10:59;9.90;1.00
15450;DHT22;7826;49.784;9.934;2022-11-09T06:13:26;9.90;1.00
15450;DHT22;7826;49.784;9.934;2022-11-09T06:15:57;9.90;1.00
15450;DHT22;7826;49.784;9.934;2022-11-09T06:18:25;9.90;1.00
15450;DHT22;7826;49.784;9.934;2022-11-09T06:20:53;9.90;1.00
15450;DHT22;7826;49.784;9.934;2022-11-09T06:23:21;9.90;1.00
15450;DHT22;7826;49.784;9.934;2022-11-09T06:26:03;9.90;1.00
15450;DHT22;7826;49.784;9.934;2022-11-09T06:28:32;10.00;1.00
15450;DHT22;7826;49.784;9.934;2022-11-09T06:31:00;9.90;1.00
15450;DHT22;7826;49.784;9.934;2022-11-09T06:33:28;9.90;1.00
15450;DHT22;7826;49.784;9.934;2022-11-09T06:35:56;9.90;1.00
15450;DHT22;7826;49.784;9.934;2022-11-09T06:38:23;9.90;1.00
15450;DHT22;7826;49.784;9.934;2022-11-09T06:40:52;9.90;1.00
15450;DHT22;7826;49.784;9.934;2022-11-09T06:43:18;10.00;1.00
15450;DHT22;7826;49.784;9.934;2022-11-09T06:45:45;9.90;1.00
15450;DHT22;7826;49.784;9.934;2022-11-09T06:48:12;10.00;1.00
15450;DHT22;7826;49.784;9.934;2022-11-09T06:50:38;10.00;1.00
15450;DHT22;7826;49.784;9.934;2022-11-09T06:53:09;10.00;1.00
15450;DHT22;7826;49.784;9.934;2022-11-09T06:55:36;10.00;1.00
15450;DHT22;7826;49.784;9.934;2022-11-09T06:58:12;10.00;1.00
15450;DHT22;7826;49.784;9.934;2022-11-09T07:00:43;10.10;1.00
15450;DHT22;7826;49.784;9.934;2022-11-09T07:03:17;10.10;1.00
15450;DHT22;7826;49.784;9.934;2022-11-09T07:05:43;10.10;1.00
15450;DHT22;7826;49.784;9.934;2022-11-09T07:08:10;10.10;1.00
15450;DHT22;7826;49.784;9.934;2022-11-09T07:10:37;10.10;1.00
15450;DHT22;7826;49.784;9.934;2022-11-09T07:13:04;10.10;1.00
15450;DHT22;7826;49.784;9.934;2022-11-09T07:15:32;10.10;1.00
15450;DHT22;7826;49.784;9.934;2022-11-09T07:18:00;10.10;1.00
15450;DHT22;7826;49.784;9.934;2022-11-09T07:20:27;10.10;1.00
15450;DHT22;7826;49.784;9.934;2022-11-09T07:22:54;10.10;1.00
15450;DHT22;7826;49.784;9.934;2022-11-09T07:25:20;10.10;1.00
15450;DHT22;7826;49.784;9.934;2022-11-09T07:27:47;10.10;1.00
15450;DHT22;7826;49.784;9.934;2022-11-09T07:30:14;10.10;1.00
15450;DHT22;7826;49.784;9.934;2022-11-09T07:32:41;10.10;1.00
15450;DHT22;7826;49.784;9.934;2022-11-09T07:35:08;10.10;1.00
15450;DHT22;7826;49.784;9.934;2022-11-09T07:37:35;10.10;1.00
15450;DHT22;7826;49.784;9.934;2022-11-09T07:40:02;10.20;1.00
15450;DHT22;7826;49.784;9.934;2022-11-09T07:42:29;10.20;1.00
15450;DHT22;7826;49.784;9.934;2022-11-09T07:44:55;10.30;1.00
15450;DHT22;7826;49.784;9.934;2022-11-09T07:47:22;10.30;1.00
15450;DHT22;7826;49.784;9.934;2022-11-09T07:49:48;10.30;1.00
15450;DHT22;7826;49.784;9.934;2022-11-09T07:52:15;10.40;1.00
15450;DHT22;7826;49.784;9.934;2022-11-09T07:54:41;10.40;1.00
15450;DHT22;7826;49.784;9.934;2022-11-09T07:57:07;10.50;1.00
15450;DHT22;7826;49.784;9.934;2022-11-09T07:59:33;10.50;1.00
15450;DHT22;7826;49.784;9.934;2022-11-09T08:02:00;10.50;1.00
15450;DHT22;7826;49.784;9.934;2022-11-09T08:04:26;10.50;1.00
15450;DHT22;7826;49.784;9.934;2022-11-09T08:06:53;10.60;1.00
15450;DHT22;7826;49.784;9.934;2022-11-09T08:09:19;10.60;1.00
15450;DHT22;7826;49.784;9.934;2022-11-09T08:11:46;10.60;1.00
15450;DHT22;7826;49.784;9.934;2022-11-09T08:14:12;10.60;1.00
15450;DHT22;7826;49.784;9.934;2022-11-09T08:16:39;10.70;1.00
15450;DHT22;7826;49.784;9.934;2022-11-09T08:19:05;10.70;1.00
15450;DHT22;7826;49.784;9.934;2022-11-09T08:21:37;10.70;1.00
15450;DHT22;7826;49.784;9.934;2022-11-09T08:24:04;10.70;1.00
15450;DHT22;7826;49.784;9.934;2022-11-09T08:26:31;10.80;1.00
15450;DHT22;7826;49.784;9.934;2022-11-09T08:28:57;10.80;1.00
15450;DHT22;7826;49.784;9.934;2022-11-09T08:31:24;10.80;1.00
15450;DHT22;7826;49.784;9.934;2022-11-09T08:33:50;10.90;1.00
15450;DHT22;7826;49.784;9.934;2022-11-09T08:36:18;10.90;1.00
15450;DHT22;7826;49.784;9.934;2022-11-09T08:38:44;10.90;1.00
15450;DHT22;7826;49.784;9.934;2022-11-09T08:41:12;10.90;1.00
15450;DHT22;7826;49.784;9.934;2022-11-09T08:43:38;11.00;1.00
15450;DHT22;7826;49.784;9.934;2022-11-09T08:46:05;11.00;1.00
15450;DHT22;7826;49.784;9.934;2022-11-09T08:48:31;11.00;1.00
15450;DHT22;7826;49.784;9.934;2022-11-09T08:50:59;11.10;1.00
15450;DHT22;7826;49.784;9.934;2022-11-09T08:53:27;11.20;1.00
15450;DHT22;7826;49.784;9.934;2022-11-09T08:55:54;11.20;1.00
15450;DHT22;7826;49.784;9.934;2022-11-09T08:58:21;11.20;1.00
15450;DHT22;7826;49.784;9.934;2022-11-09T09:00:47;11.20;1.00
15450;DHT22;7826;49.784;9.934;2022-11-09T09:03:14;11.20;1.00
15450;DHT22;7826;49.784;9.934;2022-11-09T09:05:40;11.30;1.00
15450;DHT22;7826;49.784;9.934;2022-11-09T09:08:06;11.30;1.00
15450;DHT22;7826;49.784;9.934;2022-11-09T09:10:33;11.30;1.00
15450;DHT22;7826;49.784;9.934;2022-11-09T09:13:03;11.30;1.00
15450;DHT22;7826;49.784;9.934;2022-11-09T09:15:30;11.30;1.00
15450;DHT22;7826;49.784;9.934;2022-11-09T09:17:59;11.30;1.00
15450;DHT22;7826;49.784;9.934;2022-11-09T09:20:26;11.40;1.00
15450;DHT22;7826;49.784;9.934;2022-11-09T09:22:52;11.40;1.00
15450;DHT22;7826;49.784;9.934;2022-11-09T09:25:18;11.50;1.00
15450;DHT22;7826;49.784;9.934;2022-11-09T09:27:44;11.50;1.00
15450;DHT22;7826;49.784;9.934;2022-11-09T09:30:11;11.60;1.00
15450;DHT22;7826;49.784;9.934;2022-11-09T09:32:38;11.60;1.00
15450;DHT22;7826;49.784;9.934;2022-11-09T09:35:05;11.70;1.00
15450;DHT22;7826;49.784;9.934;2022-11-09T09:37:31;11.70;1.00
15450;DHT22;7826;49.784;9.934;2022-11-09T09:39:58;11.80;1.00
15450;DHT22;7826;49.784;9.934;2022-11-09T09:42:34;11.80;1.00
15450;DHT22;7826;49.784;9.934;2022-11-09T09:50:28;11.90;1.00
15450;DHT22;7826;49.784;9.934;2022-11-09T09:55:55;12.00;1.00
15450;DHT22;7826;49.784;9.934;2022-11-09T09:58:28;12.10;1.00
15450;DHT22;7826;49.784;9.934;2022-11-09T10:01:19;12.10;1.00
15450;DHT22;7826;49.784;9.934;2022-11-09T10:03:47;12.20;1.00
15450;DHT22;7826;49.784;9.934;2022-11-09T10:14:28;12.30;1.00
15450;DHT22;7826;49.784;9.934;2022-11-09T10:20:02;12.50;1.00
15450;DHT22;7826;49.784;9.934;2022-11-09T10:25:22;12.80;1.00
15450;DHT22;7826;49.784;9.934;2022-11-09T10:27:56;12.90;1.00
15450;DHT22;7826;49.784;9.934;2022-11-09T10:30:24;12.90;1.00
15450;DHT22;7826;49.784;9.934;2022-11-09T10:32:55;13.00;1.00
15450;DHT22;7826;49.784;9.934;2022-11-09T10:35:31;13.10;1.00
15450;DHT22;7826;49.784;9.934;2022-11-09T10:37:59;13.10;1.00
15450;DHT22;7826;49.784;9.934;2022-11-09T10:40:51;13.10;1.00
15450;DHT22;7826;49.784;9.934;2022-11-09T10:43:17;13.10;1.00
15450;DHT22;7826;49.784;9.934;2022-11-09T10:45:44;13.00;1.00
15450;DHT22;7826;49.784;9.934;2022-11-09T10:48:12;13.00;1.00
15450;DHT22;7826;49.784;9.934;2022-11-09T10:50:49;13.00;1.00
15450;DHT22;7826;49.784;9.934;2022-11-09T10:53:26;13.20;1.00
15450;DHT22;7826;49.784;9.934;2022-11-09T10:56:08;13.20;1.00
15450;DHT22;7826;49.784;9.934;2022-11-09T10:58:39;13.30;1.00
15450;DHT22;7826;49.784;9.934;2022-11-09T11:01:16;13.30;1.00
15450;DHT22;7826;49.784;9.934;2022-11-09T11:03:43;13.30;1.00
15450;DHT22;7826;49.784;9.934;2022-11-09T11:16:48;13.50;1.00
15450;DHT22;7826;49.784;9.934;2022-11-09T11:30:10;13.40;1.00
15450;DHT22;7826;49.784;9.934;2022-11-09T11:32:38;13.50;1.00
15450;DHT22;7826;49.784;9.934;2022-11-09T11:35:15;13.40;1.00
15450;DHT22;7826;49.784;9.934;2022-11-09T11:40:45;13.20;1.00
15450;DHT22;7826;49.784;9.934;2022-11-09T12:00:20;13.30;1.00
15450;DHT22;7826;49.784;9.934;2022-11-09T12:11:27;13.50;1.00
15450;DHT22;7826;49.784;9.934;2022-11-09T12:14:07;13.50;1.00
15450;DHT22;7826;49.784;9.934;2022-11-09T12:16:40;13.50;1.00
15450;DHT22;7826;49.784;9.934;2022-11-09T12:30:13;13.80;1.00
15450;DHT22;7826;49.784;9.934;2022-11-09T12:35:32;13.80;1.00
15450;DHT22;7826;49.784;9.934;2022-11-09T12:38:11;13.80;1.00
15450;DHT22;7826;49.784;9.934;2022-11-09T12:40:44;13.80;1.00
15450;DHT22;7826;49.784;9.934;2022-11-09T12:43:22;13.60;1.00
15450;DHT22;7826;49.784;9.934;2022-11-09T12:45:51;13.60;1.00
15450;DHT22;7826;49.784;9.934;2022-11-09T12:48:29;13.50;1.00
15450;DHT22;7826;49.784;9.934;2022-11-09T12:50:58;13.50;1.00
15450;DHT22;7826;49.784;9.934;2022-11-09T12:53:28;13.50;1.00
15450;DHT22;7826;49.784;9.934;2022-11-09T12:56:21;13.60;1.00
15450;DHT22;7826;49.784;9.934;2022-11-09T12:58:49;13.60;1.00
15450;DHT22;7826;49.784;9.934;2022-11-09T13:03:54;13.70;1.00
15450;DHT22;7826;49.784;9.934;2022-11-09T13:06:24;13.60;1.00
15450;DHT22;7826;49.784;9.934;2022-11-09T13:09:18;13.60;1.00
15450;DHT22;7826;49.784;9.934;2022-11-09T13:11:49;13.50;1.00
15450;DHT22;7826;49.784;9.934;2022-11-09T13:16:53;13.50;1.00
15450;DHT22;7826;49.784;9.934;2022-11-09T13:25:01;13.30;1.00
15450;DHT22;7826;49.784;9.934;2022-11-09T13:27:43;13.20;1.00
15450;DHT22;7826;49.784;9.934;2022-11-09T13:38:29;13.00;1.00
15450;DHT22;7826;49.784;9.934;2022-11-09T13:40:58;13.00;1.00
15450;DHT22;7826;49.784;9.934;2022-11-09T13:43:32;13.00;1.00
15450;DHT22;7826;49.784;9.934;2022-11-09T13:46:03;13.00;1.00
15450;DHT22;7826;49.784;9.934;2022-11-09T13:48:41;13.10;1.00
15450;DHT22;7826;49.784;9.934;2022-11-09T13:51:14;13.00;1.00
15450;DHT22;7826;49.784;9.934;2022-11-09T13:53:58;13.00;1.00
15450;DHT22;7826;49.784;9.934;2022-11-09T14:01:54;12.90;1.00
15450;DHT22;7826;49.784;9.934;2022-11-09T14:04:25;12.90;1.00
15450;DHT22;7826;49.784;9.934;2022-11-09T14:09:26;12.90;1.00
15450;DHT22;7826;49.784;9.934;2022-11-09T14:17:18;13.00;1.00
15450;DHT22;7826;49.784;9.934;2022-11-09T14:22:40;12.80;1.00
15450;DHT22;7826;49.784;9.934;2022-11-09T14:25:19;12.90;1.00
15450;DHT22;7826;49.784;9.934;2022-11-09T14:27:53;12.90;1.00
15450;DHT22;7826;49.784;9.934;2022-11-09T14:30:25;12.90;1.00
15450;DHT22;7826;49.784;9.934;2022-11-09T14:32:53;12.90;1.00
15450;DHT22;7826;49.784;9.934;2022-11-09T14:35:31;12.90;1.00
15450;DHT22;7826;49.784;9.934;2022-11-09T14:38:00;12.90;1.00
15450;DHT22;7826;49.784;9.934;2022-11-09T14:40:29;12.90;1.00
15450;DHT22;7826;49.784;9.934;2022-11-09T14:42:59;12.90;1.00
15450;DHT22;7826;49.784;9.934;2022-11-09T14:45:27;12.90;1.00
15450;DHT22;7826;49.784;9.934;2022-11-09T14:47:58;12.80;1.00
15450;DHT22;7826;49.784;9.934;2022-11-09T14:50:29;12.80;1.00
15450;DHT22;7826;49.784;9.934;2022-11-09T14:52:56;12.80;1.00
15450;DHT22;7826;49.784;9.934;2022-11-09T14:55:24;12.80;1.00
15450;DHT22;7826;49.784;9.934;2022-11-09T14:57:53;12.80;1.00
15450;DHT22;7826;49.784;9.934;2022-11-09T15:00:26;12.70;1.00
15450;DHT22;7826;49.784;9.934;2022-11-09T15:02:54;12.70;1.00
15450;DHT22;7826;49.784;9.934;2022-11-09T15:05:38;12.60;1.00
15450;DHT22;7826;49.784;9.934;2022-11-09T15:08:14;12.60;1.00
15450;DHT22;7826;49.784;9.934;2022-11-09T15:10:50;12.70;1.00
15450;DHT22;7826;49.784;9.934;2022-11-09T15:13:32;12.70;1.00
15450;DHT22;7826;49.784;9.934;2022-11-09T15:15:59;12.70;1.00
15450;DHT22;7826;49.784;9.934;2022-11-09T15:18:33;12.70;1.00
15450;DHT22;7826;49.784;9.934;2022-11-09T15:24:16;12.70;1.00
15450;DHT22;7826;49.784;9.934;2022-11-09T15:26:45;12.70;1.00
15450;DHT22;7826;49.784;9.934;2022-11-09T15:32:18;12.60;1.00
15450;DHT22;7826;49.784;9.934;2022-11-09T15:37:21;12.60;1.00
15450;DHT22;7826;49.784;9.934;2022-11-09T15:39:48;12.50;1.00
15450;DHT22;7826;49.784;9.934;2022-11-09T15:42:14;12.50;1.00
15450;DHT22;7826;49.784;9.934;2022-11-09T15:44:41;12.50;1.00
15450;DHT22;7826;49.784;9.934;2022-11-09T15:47:25;12.50;1.00
15450;DHT22;7826;49.784;9.934;2022-11-09T15:49:58;12.50;1.00
15450;DHT22;7826;49.784;9.934;2022-11-09T15:52:25;12.50;1.00
15450;DHT22;7826;49.784;9.934;2022-11-09T15:54:52;12.50;1.00
15450;DHT22;7826;49.784;9.934;2022-11-09T15:57:19;12.50;1.00
15450;DHT22;7826;49.784;9.934;2022-11-09T15:59:49;12.50;1.00
15450;DHT22;7826;49.784;9.934;2022-11-09T16:02:15;12.50;1.00
15450;DHT22;7826;49.784;9.934;2022-11-09T16:04:44;12.40;1.00
15450;DHT22;7826;49.784;9.934;2022-11-09T16:07:14;12.40;1.00
15450;DHT22;7826;49.784;9.934;2022-11-09T16:09:41;12.40;1.00
15450;DHT22;7826;49.784;9.934;2022-11-09T16:12:08;12.40;1.00
15450;DHT22;7826;49.784;9.934;2022-11-09T16:14:35;12.40;1.00
15450;DHT22;7826;49.784;9.934;2022-11-09T16:17:02;12.40;1.00
15450;DHT22;7826;49.784;9.934;2022-11-09T16:19:28;12.40;1.00
15450;DHT22;7826;49.784;9.934;2022-11-09T16:21:55;12.40;1.00
15450;DHT22;7826;49.784;9.934;2022-11-09T16:24:21;12.40;1.00
15450;DHT22;7826;49.784;9.934;2022-11-09T16:26:48;12.40;1.00
15450;DHT22;7826;49.784;9.934;2022-11-09T16:29:15;12.40;1.00
15450;DHT22;7826;49.784;9.934;2022-11-09T16:31:41;12.40;1.00
15450;DHT22;7826;49.784;9.934;2022-11-09T16:34:08;12.40;1.00
15450;DHT22;7826;49.784;9.934;2022-11-09T16:36:35;12.30;1.00
15450;DHT22;7826;49.784;9.934;2022-11-09T16:39:04;12.40;1.00
15450;DHT22;7826;49.784;9.934;2022-11-09T16:41:31;12.40;1.00
15450;DHT22;7826;49.784;9.934;2022-11-09T16:43:57;12.40;1.00
15450;DHT22;7826;49.784;9.934;2022-11-09T16:46:26;12.30;1.00
15450;DHT22;7826;49.784;9.934;2022-11-09T16:48:53;12.40;1.00
15450;DHT22;7826;49.784;9.934;2022-11-09T16:51:20;12.40;1.00
15450;DHT22;7826;49.784;9.934;2022-11-09T16:53:47;12.30;1.00
15450;DHT22;7826;49.784;9.934;2022-11-09T16:56:13;12.30;1.00
15450;DHT22;7826;49.784;9.934;2022-11-09T16:58:40;12.30;1.00
15450;DHT22;7826;49.784;9.934;2022-11-09T17:01:06;12.30;1.00
15450;DHT22;7826;49.784;9.934;2022-11-09T17:03:34;12.30;1.00
15450;DHT22;7826;49.784;9.934;2022-11-09T17:06:01;12.30;1.00
15450;DHT22;7826;49.784;9.934;2022-11-09T17:08:28;12.30;1.00
15450;DHT22;7826;49.784;9.934;2022-11-09T17:10:54;12.30;1.00
15450;DHT22;7826;49.784;9.934;2022-11-09T17:13:20;12.30;1.00
15450;DHT22;7826;49.784;9.934;2022-11-09T17:15:49;12.30;1.00
15450;DHT22;7826;49.784;9.934;2022-11-09T17:18:17;12.30;1.00
15450;DHT22;7826;49.784;9.934;2022-11-09T17:20:48;12.30;1.00
15450;DHT22;7826;49.784;9.934;2022-11-09T17:23:16;12.30;1.00
15450;DHT22;7826;49.784;9.934;2022-11-09T17:25:58;12.30;1.00
15450;DHT22;7826;49.784;9.934;2022-11-09T17:28:25;12.30;1.00
15450;DHT22;7826;49.784;9.934;2022-11-09T17:30:53;12.30;1.00
15450;DHT22;7826;49.784;9.934;2022-11-09T17:33:21;12.30;1.00
15450;DHT22;7826;49.784;9.934;2022-11-09T17:36:00;12.30;1.00
15450;DHT22;7826;49.784;9.934;2022-11-09T17:38:28;12.30;1.00
15450;DHT22;7826;49.784;9.934;2022-11-09T17:41:09;12.40;1.00
15450;DHT22;7826;49.784;9.934;2022-11-09T17:43:37;12.40;1.00
15450;DHT22;7826;49.784;9.934;2022-11-09T17:46:07;12.30;1.00
15450;DHT22;7826;49.784;9.934;2022-11-09T17:48:35;12.30;1.00
15450;DHT22;7826;49.784;9.934;2022-11-09T17:51:03;12.30;1.00
15450;DHT22;7826;49.784;9.934;2022-11-09T17:53:30;12.30;1.00
15450;DHT22;7826;49.784;9.934;2022-11-09T17:55:56;12.20;1.00
15450;DHT22;7826;49.784;9.934;2022-11-09T17:58:23;12.20;1.00
15450;DHT22;7826;49.784;9.934;2022-11-09T18:00:49;12.20;1.00
15450;DHT22;7826;49.784;9.934;2022-11-09T18:03:17;12.20;1.00
15450;DHT22;7826;49.784;9.934;2022-11-09T18:05:44;12.20;1.00
15450;DHT22;7826;49.784;9.934;2022-11-09T18:08:12;12.20;1.00
15450;DHT22;7826;49.784;9.934;2022-11-09T18:10:42;12.20;1.00
15450;DHT22;7826;49.784;9.934;2022-11-09T18:13:09;12.10;1.00
15450;DHT22;7826;49.784;9.934;2022-11-09T18:15:36;12.10;1.00
15450;DHT22;7826;49.784;9.934;2022-11-09T18:18:03;12.10;1.00
15450;DHT22;7826;49.784;9.934;2022-11-09T18:20:29;12.10;1.00
15450;DHT22;7826;49.784;9.934;2022-11-09T18:22:55;12.10;1.00
15450;DHT22;7826;49.784;9.934;2022-11-09T18:25:22;12.10;1.00